createdAt,value
2019-03-02T00:00:28.883Z,7.10
2019-03-02T00:02:59.797Z,7.10
2019-03-02T00:05:27.713Z,7.10
2019-03-02T00:07:56.131Z,7.10
2019-03-02T00:10:24.579Z,7.10
2019-03-02T00:12:53.049Z,7.10
2019-03-02T00:15:21.496Z,7.10
2019-03-02T00:17:50.599Z,7.20
2019-03-02T00:20:20.204Z,7.10
2019-03-02T00:22:48.657Z,7.10
2019-03-02T00:25:17.102Z,7.20
2019-03-02T00:27:45.543Z,7.10
2019-03-02T00:30:17.618Z,7.10
2019-03-02T00:32:46.051Z,7.20
2019-03-02T00:35:14.703Z,7.20
2019-03-02T00:37:43.155Z,7.20
2019-03-02T00:40:11.987Z,7.20
2019-03-02T00:42:40.424Z,7.20
2019-03-02T00:45:14.227Z,7.20
2019-03-02T00:47:41.745Z,7.20
2019-03-02T00:50:11.557Z,7.10
2019-03-02T00:52:40.085Z,7.10
2019-03-02T00:55:09.224Z,7.10
2019-03-02T00:57:37.710Z,7.20
2019-03-02T01:00:17.188Z,7.20
2019-03-02T01:02:46.010Z,7.20
2019-03-02T01:05:14.912Z,7.20
2019-03-02T01:07:43.416Z,7.20
2019-03-02T01:10:18.879Z,7.20
2019-03-02T01:12:46.318Z,7.20
2019-03-02T01:15:16.598Z,7.20
2019-03-02T01:17:45.149Z,7.10
2019-03-02T01:20:15.299Z,7.10
2019-03-02T01:22:43.747Z,7.20
2019-03-02T01:25:14.614Z,7.20
2019-03-02T01:27:43.372Z,7.20
2019-03-02T01:30:17.023Z,7.20
2019-03-02T01:32:48.814Z,7.20
2019-03-02T01:35:16.391Z,7.20
2019-03-02T01:37:46.082Z,7.20
2019-03-02T01:40:15.925Z,7.20
2019-03-02T01:42:44.731Z,7.20
2019-03-02T01:45:16.074Z,7.20
2019-03-02T01:47:50.561Z,7.20
2019-03-02T01:50:16.667Z,7.10
2019-03-02T01:52:45.190Z,7.20
2019-03-02T01:55:15.668Z,7.20
2019-03-02T01:57:44.113Z,7.20
2019-03-02T02:00:25.525Z,7.20
2019-03-02T02:02:54.311Z,7.20
2019-03-02T02:05:22.820Z,7.20
2019-03-02T02:07:54.157Z,7.10
2019-03-02T02:10:21.707Z,7.10
2019-03-02T02:12:50.239Z,7.10
2019-03-02T02:15:29.264Z,7.20
2019-03-02T02:17:56.172Z,7.10
2019-03-02T02:20:24.597Z,7.10
2019-03-02T02:22:53.131Z,7.10
2019-03-02T02:25:22.311Z,7.20
2019-03-02T02:27:50.813Z,7.20
2019-03-02T02:30:27.414Z,7.20
2019-03-02T02:33:03.244Z,7.10
2019-03-02T02:35:27.284Z,7.20
2019-03-02T02:37:55.712Z,7.20
2019-03-02T02:40:24.505Z,7.20
2019-03-02T02:42:53.015Z,7.10
2019-03-02T02:45:23.274Z,7.10
2019-03-02T02:47:54.299Z,7.20
2019-03-02T02:50:29.754Z,7.20
2019-03-02T02:52:52.531Z,7.20
2019-03-02T02:55:21.094Z,7.20
2019-03-02T02:57:49.499Z,7.20
2019-03-02T03:00:26.320Z,7.20
2019-03-02T03:02:54.903Z,7.20
2019-03-02T03:05:23.377Z,7.20
2019-03-02T03:07:54.134Z,7.20
2019-03-02T03:10:27.975Z,7.20
2019-03-02T03:13:01.828Z,7.20
2019-03-02T03:15:36.047Z,7.10
2019-03-02T03:17:59.492Z,7.10
2019-03-02T03:20:27.932Z,7.00
2019-03-02T03:22:56.361Z,7.10
2019-03-02T03:25:24.916Z,7.10
2019-03-02T03:27:53.770Z,7.10
2019-03-02T03:30:33.825Z,7.10
2019-03-02T03:32:55.951Z,7.10
2019-03-02T03:35:22.816Z,7.10
2019-03-02T03:37:52.692Z,7.10
2019-03-02T03:40:25.309Z,7.10
2019-03-02T03:42:51.953Z,7.10
2019-03-02T03:45:20.455Z,7.10
2019-03-02T03:47:48.895Z,7.00
2019-03-02T03:50:17.499Z,7.00
2019-03-02T03:52:48.997Z,6.90
2019-03-02T03:55:23.687Z,7.00
2019-03-02T03:57:47.433Z,6.90
2019-03-02T04:00:17.099Z,6.90
2019-03-02T04:02:45.608Z,6.90
2019-03-02T04:05:14.112Z,6.90
2019-03-02T04:07:48.721Z,6.90
2019-03-02T04:10:19.910Z,6.80
2019-03-02T04:12:45.557Z,6.80
2019-03-02T04:15:14.730Z,6.80
2019-03-02T04:17:43.173Z,6.80
2019-03-02T04:20:17.690Z,6.80
2019-03-02T04:22:46.204Z,6.80
2019-03-02T04:25:18.089Z,6.80
2019-03-02T04:27:53.190Z,6.80
2019-03-02T04:30:15.053Z,6.80
2019-03-02T04:32:43.534Z,6.70
2019-03-02T04:35:12.087Z,6.70
2019-03-02T04:37:40.533Z,6.60
2019-03-02T04:40:10.036Z,6.60
2019-03-02T04:42:38.662Z,6.60
2019-03-02T04:45:09.836Z,6.70
2019-03-02T04:47:38.279Z,6.70
2019-03-02T04:50:08.376Z,6.70
2019-03-02T04:52:36.810Z,6.70
2019-03-02T04:55:13.441Z,6.70
2019-03-02T04:57:43.019Z,6.70
2019-03-02T05:00:15.987Z,6.70
2019-03-02T05:02:44.552Z,6.70
2019-03-02T05:05:13.126Z,6.70
2019-03-02T05:07:41.645Z,6.70
2019-03-02T05:10:11.639Z,6.70
2019-03-02T05:12:40.214Z,6.70
2019-03-02T05:15:12.030Z,6.70
2019-03-02T05:17:43.000Z,6.70
2019-03-02T05:20:11.955Z,6.70
2019-03-02T05:22:40.468Z,6.70
2019-03-02T05:25:10.647Z,6.80
2019-03-02T05:27:39.075Z,6.80
2019-03-02T05:30:10.543Z,6.80
2019-03-02T05:32:38.991Z,6.80
2019-03-02T05:35:07.622Z,6.70
2019-03-02T05:37:39.243Z,6.70
2019-03-02T05:40:08.961Z,6.70
2019-03-02T05:42:37.430Z,6.70
2019-03-02T05:45:13.816Z,6.70
2019-03-02T05:47:42.332Z,6.70
2019-03-02T05:50:15.702Z,6.70
2019-03-02T05:52:44.251Z,6.70
2019-03-02T05:55:14.272Z,6.70
2019-03-02T05:57:43.314Z,6.70
2019-03-02T06:00:14.648Z,6.70
2019-03-02T06:02:43.115Z,6.70
2019-03-02T06:05:11.728Z,6.70
2019-03-02T06:07:40.182Z,6.70
2019-03-02T06:10:10.960Z,6.70
2019-03-02T06:12:39.411Z,6.80
2019-03-02T06:15:10.591Z,6.80
2019-03-02T06:17:39.388Z,6.80
2019-03-02T06:20:09.653Z,6.80
2019-03-02T06:22:38.110Z,6.80
2019-03-02T06:25:09.208Z,6.80
2019-03-02T06:27:37.750Z,6.70
2019-03-02T06:30:09.405Z,6.80
2019-03-02T06:32:37.890Z,6.80
2019-03-02T06:35:08.679Z,6.80
2019-03-02T06:37:37.107Z,6.80
2019-03-02T06:40:08.103Z,6.80
2019-03-02T06:42:36.600Z,6.80
2019-03-02T06:45:10.428Z,6.80
2019-03-02T06:47:39.008Z,6.80
2019-03-02T06:50:10.644Z,6.80
2019-03-02T06:52:39.095Z,6.70
2019-03-02T06:55:09.563Z,6.80
2019-03-02T06:57:38.019Z,6.70
2019-03-02T07:00:13.952Z,6.80
2019-03-02T07:02:42.534Z,6.80
2019-03-02T07:05:11.028Z,6.80
2019-03-02T07:07:39.461Z,6.80
2019-03-02T07:10:13.762Z,6.80
2019-03-02T07:12:45.648Z,6.90
2019-03-02T07:15:13.631Z,6.90
2019-03-02T07:17:46.617Z,6.80
2019-03-02T07:20:16.705Z,6.90
2019-03-02T07:22:48.667Z,6.90
2019-03-02T07:25:15.316Z,6.90
2019-03-02T07:27:43.743Z,7.00
2019-03-02T07:30:12.930Z,7.00
2019-03-02T07:32:41.465Z,6.90
2019-03-02T07:35:10.424Z,6.90
2019-03-02T07:37:40.606Z,6.90
2019-03-02T07:40:11.193Z,7.00
2019-03-02T07:42:39.776Z,7.00
2019-03-02T07:45:14.036Z,7.00
2019-03-02T07:47:42.468Z,7.10
2019-03-02T07:50:11.580Z,7.00
2019-03-02T07:52:40.090Z,7.10
2019-03-02T07:55:11.002Z,7.10
2019-03-02T07:57:40.655Z,7.20
2019-03-02T08:00:18.163Z,7.20
2019-03-02T08:02:46.588Z,7.20
2019-03-02T08:05:15.491Z,7.20
2019-03-02T08:07:44.156Z,7.30
2019-03-02T08:10:13.785Z,7.30
2019-03-02T08:12:42.289Z,7.40
2019-03-02T08:15:13.631Z,7.40
2019-03-02T08:17:42.182Z,7.40
2019-03-02T08:20:16.500Z,7.40
2019-03-02T08:22:46.275Z,7.50
2019-03-02T08:25:15.588Z,7.50
2019-03-02T08:27:44.102Z,7.60
2019-03-02T08:30:17.968Z,7.60
2019-03-02T08:32:46.427Z,7.60
2019-03-02T08:35:16.291Z,7.60
2019-03-02T08:37:45.091Z,7.60
2019-03-02T08:40:15.178Z,7.70
2019-03-02T08:42:43.644Z,7.70
2019-03-02T08:45:17.006Z,7.70
2019-03-02T08:47:45.532Z,7.70
2019-03-02T08:50:17.572Z,7.70
2019-03-02T08:52:45.692Z,7.80
2019-03-02T08:55:19.587Z,7.90
2019-03-02T08:57:48.044Z,7.80
2019-03-02T09:00:21.643Z,7.90
2019-03-02T09:02:50.164Z,8.00
2019-03-02T09:05:18.857Z,8.00
2019-03-02T09:07:47.738Z,7.90
2019-03-02T09:10:17.424Z,8.00
2019-03-02T09:12:46.004Z,8.10
2019-03-02T09:15:30.311Z,8.20
2019-03-02T09:17:58.965Z,8.20
2019-03-02T09:20:27.571Z,8.30
2019-03-02T09:23:00.546Z,8.40
2019-03-02T09:25:27.866Z,8.60
2019-03-02T09:27:56.457Z,8.80
2019-03-02T09:30:25.130Z,9.00
2019-03-02T09:32:55.335Z,9.10
2019-03-02T09:35:23.844Z,9.10
2019-03-02T09:37:52.420Z,9.00
2019-03-02T09:40:24.555Z,9.00
2019-03-02T09:42:53.792Z,8.90
2019-03-02T09:45:22.716Z,8.80
2019-03-02T09:47:52.149Z,8.80
2019-03-02T09:50:22.287Z,8.90
2019-03-02T09:52:50.870Z,8.90
2019-03-02T09:55:20.223Z,9.10
2019-03-02T09:57:49.406Z,9.00
2019-03-02T10:00:26.123Z,9.10
2019-03-02T10:02:54.910Z,9.30
2019-03-02T10:05:23.432Z,9.30
2019-03-02T10:07:51.886Z,9.50
2019-03-02T10:10:20.664Z,9.60
2019-03-02T10:12:51.504Z,9.70
2019-03-02T10:15:24.386Z,9.80
2019-03-02T10:17:53.042Z,9.70
2019-03-02T10:20:21.660Z,9.70
2019-03-02T10:22:50.151Z,9.70
2019-03-02T10:25:19.292Z,9.70
2019-03-02T10:27:47.891Z,9.70
2019-03-02T10:30:22.077Z,9.70
2019-03-02T10:32:55.083Z,9.60
2019-03-02T10:35:21.900Z,9.70
2019-03-02T10:37:50.414Z,9.70
2019-03-02T10:40:19.827Z,9.90
2019-03-02T10:42:48.361Z,10.00
2019-03-02T10:45:20.914Z,10.10
2019-03-02T10:47:49.516Z,10.20
2019-03-02T10:50:25.609Z,10.30
2019-03-02T10:52:54.327Z,10.30
2019-03-02T10:55:23.959Z,10.20
2019-03-02T10:57:52.476Z,10.40
2019-03-02T11:00:31.472Z,10.40
2019-03-02T11:03:11.474Z,10.60
2019-03-02T11:05:41.803Z,10.70
2019-03-02T11:08:29.695Z,10.70
2019-03-02T11:11:16.305Z,10.90
2019-03-02T11:13:56.214Z,11.10
2019-03-02T11:16:29.089Z,11.30
2019-03-02T11:19:07.842Z,11.50
2019-03-02T11:21:42.680Z,11.70
2019-03-02T11:24:31.004Z,12.00
2019-03-02T11:27:14.033Z,12.10
2019-03-02T11:30:00.503Z,12.10
2019-03-02T11:32:42.791Z,12.20
2019-03-02T11:35:21.879Z,12.30
2019-03-02T11:38:07.295Z,12.50
2019-03-02T11:40:53.771Z,12.40
2019-03-02T11:43:40.472Z,12.40
2019-03-02T11:46:25.871Z,12.60
2019-03-02T11:48:57.949Z,12.60
2019-03-02T11:51:28.027Z,12.70
2019-03-02T11:53:58.287Z,12.80
2019-03-02T11:56:28.371Z,12.90
2019-03-02T11:58:58.539Z,12.90
2019-03-02T12:01:30.020Z,12.90
2019-03-02T12:04:00.578Z,13.00
2019-03-02T12:06:48.471Z,13.10
2019-03-02T12:09:30.612Z,13.10
2019-03-02T12:12:00.699Z,13.10
2019-03-02T12:14:30.898Z,13.10
2019-03-02T12:17:10.272Z,13.10
2019-03-02T12:19:43.082Z,13.10
2019-03-02T12:22:19.239Z,13.10
2019-03-02T12:25:07.591Z,13.10
2019-03-02T12:27:46.844Z,13.10
2019-03-02T12:30:17.102Z,13.10
2019-03-02T12:32:47.250Z,13.10
2019-03-02T12:35:20.139Z,13.30
2019-03-02T12:37:52.664Z,13.10
2019-03-02T12:40:22.819Z,13.10
2019-03-02T12:42:52.915Z,13.20
2019-03-02T12:45:25.556Z,13.20
2019-03-02T12:48:12.147Z,13.20
2019-03-02T12:50:45.321Z,13.10
2019-03-02T12:53:16.191Z,13.10
2019-03-02T12:55:46.367Z,13.10
2019-03-02T12:58:19.975Z,13.20
2019-03-02T13:00:57.059Z,13.30
2019-03-02T13:03:39.095Z,13.40
2019-03-02T13:06:25.748Z,13.30
2019-03-02T13:08:59.253Z,13.20
2019-03-02T13:11:30.771Z,14.50
2019-03-02T13:14:17.170Z,13.20
2019-03-02T13:17:00.675Z,13.40
2019-03-02T13:19:47.664Z,13.40
2019-03-02T13:22:20.525Z,13.50
2019-03-02T13:24:53.784Z,13.70
2019-03-02T13:27:28.207Z,13.60
2019-03-02T13:29:58.341Z,13.70
2019-03-02T13:32:45.236Z,13.90
2019-03-02T13:35:15.354Z,13.80
2019-03-02T13:38:00.571Z,13.60
2019-03-02T13:40:33.739Z,13.60
2019-03-02T13:43:04.634Z,13.40
2019-03-02T13:45:45.929Z,13.20
2019-03-02T13:48:17.676Z,13.10
2019-03-02T13:51:06.048Z,12.90
2019-03-02T13:53:42.144Z,12.80
2019-03-02T13:56:12.339Z,12.90
2019-03-02T13:58:42.427Z,12.80
2019-03-02T14:01:12.522Z,12.80
2019-03-02T14:03:51.033Z,13.00
2019-03-02T14:06:38.945Z,12.90
2019-03-02T14:09:16.264Z,12.90
2019-03-02T14:12:04.029Z,12.80
2019-03-02T14:14:49.140Z,12.70
2019-03-02T14:17:24.882Z,12.40
2019-03-02T14:19:57.547Z,12.50
2019-03-02T14:22:33.620Z,12.60
2019-03-02T14:25:06.550Z,12.70
2019-03-02T14:27:50.319Z,12.70
2019-03-02T14:30:24.749Z,12.90
2019-03-02T14:32:55.015Z,12.90
2019-03-02T14:35:34.435Z,12.90
2019-03-02T14:38:12.288Z,12.90
2019-03-02T14:41:04.794Z,13.00
2019-03-02T14:43:35.827Z,12.80
2019-03-02T14:46:04.749Z,12.60
2019-03-02T14:48:35.132Z,12.50
2019-03-02T14:51:22.072Z,12.30
2019-03-02T14:53:52.399Z,12.30
2019-03-02T14:56:22.480Z,12.20
2019-03-02T14:59:10.200Z,12.10
2019-03-02T15:01:51.339Z,12.10
2019-03-02T15:04:27.352Z,12.10
2019-03-02T15:06:57.432Z,12.20
2019-03-02T15:09:27.608Z,12.00
2019-03-02T15:12:02.410Z,12.00
2019-03-02T15:14:48.547Z,12.00
2019-03-02T15:17:18.642Z,11.90
2019-03-02T15:19:57.335Z,11.90
2019-03-02T15:22:25.336Z,12.00
2019-03-02T15:24:55.547Z,11.80
2019-03-02T15:27:25.612Z,11.70
2019-03-02T15:30:14.113Z,11.60
2019-03-02T15:32:44.514Z,11.40
2019-03-02T15:35:33.639Z,11.40
2019-03-02T15:38:15.495Z,11.40
2019-03-02T15:41:05.265Z,11.30
2019-03-02T15:43:45.203Z,11.30
2019-03-02T15:46:15.287Z,11.30
2019-03-02T15:48:48.202Z,11.30
2019-03-02T15:51:34.856Z,11.40
2019-03-02T15:54:04.988Z,11.50
2019-03-02T15:56:35.167Z,11.50
2019-03-02T15:59:20.249Z,11.60
2019-03-02T16:01:50.502Z,11.60
2019-03-02T16:04:23.192Z,11.60
2019-03-02T16:07:02.060Z,11.60
2019-03-02T16:09:37.744Z,11.50
2019-03-02T16:12:10.664Z,11.50
2019-03-02T16:14:40.751Z,11.40
2019-03-02T16:17:13.547Z,11.30
2019-03-02T16:20:02.291Z,11.30
2019-03-02T16:22:33.274Z,11.30
2019-03-02T16:25:04.960Z,11.30
2019-03-02T16:27:46.516Z,11.30
2019-03-02T16:30:17.131Z,11.30
2019-03-02T16:33:04.020Z,11.20
2019-03-02T16:35:40.195Z,11.30
2019-03-02T16:38:27.043Z,11.30
2019-03-02T16:40:59.636Z,11.20
2019-03-02T16:43:33.498Z,11.20
2019-03-02T16:46:21.770Z,11.10
2019-03-02T16:49:08.423Z,11.00
2019-03-02T16:51:38.616Z,11.00
2019-03-02T16:54:08.795Z,11.00
2019-03-02T16:56:57.593Z,10.90
2019-03-02T16:59:36.204Z,10.90
2019-03-02T17:02:24.639Z,10.80
2019-03-02T17:04:57.507Z,10.60
2019-03-02T17:07:36.867Z,10.50
2019-03-02T17:10:23.550Z,10.40
2019-03-02T17:13:09.020Z,10.30
2019-03-02T17:15:58.810Z,10.20
2019-03-02T17:18:36.600Z,10.10
2019-03-02T17:21:06.927Z,10.60
2019-03-02T17:23:53.473Z,10.50
2019-03-02T17:26:32.375Z,10.30
2019-03-02T17:29:14.541Z,10.10
2019-03-02T17:32:02.609Z,10.10
2019-03-02T17:34:48.623Z,10.00
2019-03-02T17:37:24.800Z,10.00
2019-03-02T17:40:01.416Z,9.90
2019-03-02T17:42:32.917Z,9.90
2019-03-02T17:45:19.576Z,9.90
2019-03-02T17:47:49.654Z,9.80
2019-03-02T17:50:35.130Z,9.90
2019-03-02T17:53:17.671Z,9.90
2019-03-02T17:55:56.445Z,9.90
2019-03-02T17:58:28.041Z,9.90
2019-03-02T18:01:04.434Z,9.90
2019-03-02T18:03:49.853Z,9.90
2019-03-02T18:06:14.984Z,10.00
2019-03-02T18:08:48.368Z,10.00
2019-03-02T18:11:26.206Z,10.00
2019-03-02T18:13:58.769Z,10.10
2019-03-02T18:16:42.379Z,10.10
2019-03-02T18:19:17.030Z,10.20
2019-03-02T18:21:43.614Z,10.10
2019-03-02T18:24:12.069Z,10.10
2019-03-02T18:26:40.663Z,10.00
2019-03-02T18:29:09.174Z,10.00
2019-03-02T18:31:37.769Z,10.00
2019-03-02T18:34:07.960Z,10.10
2019-03-02T18:36:40.728Z,10.00
2019-03-02T18:39:08.231Z,10.10
2019-03-02T18:41:36.752Z,10.00
2019-03-02T18:44:05.380Z,10.10
2019-03-02T18:46:34.199Z,10.10
2019-03-02T18:49:13.933Z,10.10
2019-03-02T18:51:47.649Z,10.10
2019-03-02T18:54:16.247Z,10.10
2019-03-02T18:56:45.583Z,10.10
2019-03-02T18:59:14.099Z,10.20
2019-03-02T19:01:44.593Z,10.20
2019-03-02T19:04:13.905Z,10.20
2019-03-02T19:06:42.380Z,10.10
2019-03-02T19:09:11.433Z,10.20
2019-03-02T19:11:39.968Z,10.20
2019-03-02T19:14:08.531Z,10.20
2019-03-02T19:16:36.959Z,10.20
2019-03-02T19:19:05.562Z,10.20
2019-03-02T19:21:34.144Z,10.20
2019-03-02T19:24:02.607Z,10.20
2019-03-02T19:26:31.117Z,10.20
2019-03-02T19:28:59.645Z,10.20
2019-03-02T19:31:28.151Z,10.10
2019-03-02T19:33:56.634Z,10.20
2019-03-02T19:36:25.072Z,10.20
2019-03-02T19:38:53.523Z,10.20
2019-03-02T19:41:21.973Z,10.20
2019-03-02T19:43:50.555Z,10.20
2019-03-02T19:46:19.068Z,10.20
2019-03-02T19:48:47.592Z,10.20
2019-03-02T19:51:16.096Z,10.20
2019-03-02T19:53:44.717Z,10.20
2019-03-02T19:56:13.211Z,10.20
2019-03-02T19:58:41.656Z,10.20
2019-03-02T20:01:10.347Z,10.30
2019-03-02T20:03:38.873Z,10.30
2019-03-02T20:06:07.396Z,10.20
2019-03-02T20:08:35.849Z,10.30
2019-03-02T20:11:04.533Z,10.30
2019-03-02T20:13:34.633Z,10.30
2019-03-02T20:16:03.492Z,10.30
2019-03-02T20:18:32.000Z,10.30
2019-03-02T20:21:00.539Z,10.30
2019-03-02T20:23:36.912Z,10.30
2019-03-02T20:25:59.717Z,10.30
2019-03-02T20:28:28.227Z,10.40
2019-03-02T20:30:56.826Z,10.40
2019-03-02T20:33:25.451Z,10.40
2019-03-02T20:35:53.967Z,10.30
2019-03-02T20:38:22.503Z,10.30
2019-03-02T20:40:52.966Z,10.40
2019-03-02T20:43:21.435Z,10.40
2019-03-02T20:45:49.942Z,10.40
2019-03-02T20:48:18.372Z,10.50
2019-03-02T20:50:46.950Z,10.50
2019-03-02T20:53:15.504Z,10.50
2019-03-02T20:55:44.025Z,10.50
2019-03-02T20:58:12.730Z,10.50
2019-03-02T21:00:41.984Z,10.60
2019-03-02T21:03:10.512Z,10.60
2019-03-02T21:05:38.931Z,10.60
2019-03-02T21:08:07.641Z,10.60
2019-03-02T21:10:36.507Z,10.60
2019-03-02T21:13:05.261Z,10.60
2019-03-02T21:15:39.187Z,10.80
2019-03-02T21:18:07.906Z,10.80
2019-03-02T21:20:36.833Z,10.70
2019-03-02T21:23:05.634Z,10.70
2019-03-02T21:25:34.073Z,10.70
2019-03-02T21:28:02.617Z,10.60
2019-03-02T21:30:31.109Z,10.60
2019-03-02T21:32:59.642Z,10.60
2019-03-02T21:35:28.073Z,10.50
2019-03-02T21:37:56.621Z,10.50
2019-03-02T21:40:27.289Z,10.50
2019-03-02T21:42:55.886Z,10.50
2019-03-02T21:45:28.327Z,10.50
2019-03-02T21:47:56.953Z,10.50
2019-03-02T21:50:31.092Z,10.40
2019-03-02T21:52:59.739Z,10.50
2019-03-02T21:55:28.243Z,10.50
2019-03-02T21:57:56.729Z,10.50
2019-03-02T22:00:27.003Z,10.60
2019-03-02T22:02:55.466Z,10.60
2019-03-02T22:05:24.147Z,10.80
2019-03-02T22:07:52.631Z,10.80
2019-03-02T22:10:30.195Z,10.80
2019-03-02T22:12:59.501Z,10.70
2019-03-02T22:15:28.108Z,10.70
2019-03-02T22:17:57.248Z,10.60
2019-03-02T22:20:25.771Z,10.50
2019-03-02T22:22:54.338Z,10.40
2019-03-02T22:25:24.420Z,10.30
2019-03-02T22:27:52.864Z,10.20
2019-03-02T22:30:22.941Z,10.20
2019-03-02T22:32:51.468Z,10.10
2019-03-02T22:35:20.024Z,10.00
2019-03-02T22:37:48.456Z,10.00
2019-03-02T22:40:22.169Z,9.90
2019-03-02T22:42:50.598Z,9.90
2019-03-02T22:45:19.268Z,9.80
2019-03-02T22:47:47.771Z,9.80
2019-03-02T22:50:19.060Z,9.80
2019-03-02T22:52:47.570Z,9.70
2019-03-02T22:55:16.841Z,9.70
2019-03-02T22:57:45.377Z,9.70
2019-03-02T23:00:17.084Z,9.70
2019-03-02T23:02:46.912Z,9.70
2019-03-02T23:05:15.396Z,9.70
2019-03-02T23:07:44.389Z,9.70
2019-03-02T23:10:12.914Z,9.70
2019-03-02T23:12:41.359Z,9.70
2019-03-02T23:15:17.786Z,9.70
2019-03-02T23:17:46.517Z,9.70
2019-03-02T23:20:15.505Z,9.80
2019-03-02T23:22:44.116Z,9.80
2019-03-02T23:25:14.665Z,9.80
2019-03-02T23:27:43.193Z,9.80
2019-03-02T23:30:16.948Z,9.80
2019-03-02T23:32:45.411Z,9.80
2019-03-02T23:35:13.986Z,9.70
2019-03-02T23:37:42.760Z,9.80
2019-03-02T23:40:13.222Z,9.80
2019-03-02T23:42:41.828Z,9.80
2019-03-02T23:45:13.334Z,9.80
2019-03-02T23:47:41.939Z,9.90
2019-03-02T23:50:11.753Z,9.90
2019-03-02T23:52:41.949Z,9.90
2019-03-02T23:55:12.182Z,9.90
2019-03-02T23:57:42.251Z,9.80
